Coeur d'Alene, Idaho
Current Conditions -  °F | °C
As of 7:35 PM on Monday 22 Dec 2014 (Local Time) from KCOE Reporting Station
Clear Clear  
Wind Chill: -2°   Ceiling: Unl
Heat Index:   Visibility: 10mi
Dew Point: -2°   Wind: 7mph
Humidity: 81%   Direction: 160°SSE
Pressure: 30.28"   Gusts: NA
Location:  47.68°N, 116.79°W
Report Text: KCOE 230335Z AUTO 16006KT 10SM CLR 01/M02 A3028 RMK AO1
Loading
Personal Weather Stations






























Interactive Weather Map New forecast layout! Learn more

10-Day Weather Forecast

Advertisements
Track Severe Weather on mobile